sensor_id;sensor_type;location;lat;lon;timestamp;P1;durP1;ratioP1;P2;durP2;ratioP2
7817;SDS011;3954;52.624;9.212;2023-02-01T00:00:05;12.77;;;3.53;;
7817;SDS011;3954;52.624;9.212;2023-02-01T00:02:32;9.20;;;3.23;;
7817;SDS011;3954;52.624;9.212;2023-02-01T00:04:58;15.57;;;4.10;;
7817;SDS011;3954;52.624;9.212;2023-02-01T00:07:24;13.07;;;3.80;;
7817;SDS011;3954;52.624;9.212;2023-02-01T00:09:50;12.40;;;3.27;;
7817;SDS011;3954;52.624;9.212;2023-02-01T00:12:16;15.37;;;3.80;;
7817;SDS011;3954;52.624;9.212;2023-02-01T00:14:42;12.40;;;3.13;;
7817;SDS011;3954;52.624;9.212;2023-02-01T00:17:08;18.20;;;3.77;;
7817;SDS011;3954;52.624;9.212;2023-02-01T00:19:36;13.13;;;3.50;;
7817;SDS011;3954;52.624;9.212;2023-02-01T00:22:02;13.80;;;3.77;;
7817;SDS011;3954;52.624;9.212;2023-02-01T00:24:28;11.83;;;4.63;;
7817;SDS011;3954;52.624;9.212;2023-02-01T00:26:54;16.80;;;3.73;;
7817;SDS011;3954;52.624;9.212;2023-02-01T00:29:20;11.30;;;4.23;;
7817;SDS011;3954;52.624;9.212;2023-02-01T00:31:46;13.90;;;4.03;;
7817;SDS011;3954;52.624;9.212;2023-02-01T00:34:15;17.80;;;4.20;;
7817;SDS011;3954;52.624;9.212;2023-02-01T00:36:43;15.80;;;3.33;;
7817;SDS011;3954;52.624;9.212;2023-02-01T00:39:09;13.40;;;3.80;;
7817;SDS011;3954;52.624;9.212;2023-02-01T00:41:35;16.03;;;4.57;;
7817;SDS011;3954;52.624;9.212;2023-02-01T00:44:01;12.33;;;3.50;;
7817;SDS011;3954;52.624;9.212;2023-02-01T00:46:28;19.00;;;3.87;;
7817;SDS011;3954;52.624;9.212;2023-02-01T00:48:54;19.60;;;3.90;;
7817;SDS011;3954;52.624;9.212;2023-02-01T00:51:20;16.30;;;3.40;;
7817;SDS011;3954;52.624;9.212;2023-02-01T00:53:48;15.47;;;4.73;;
7817;SDS011;3954;52.624;9.212;2023-02-01T00:56:15;18.13;;;4.50;;
7817;SDS011;3954;52.624;9.212;2023-02-01T00:58:41;15.60;;;3.83;;
7817;SDS011;3954;52.624;9.212;2023-02-01T01:01:08;18.03;;;4.13;;
7817;SDS011;3954;52.624;9.212;2023-02-01T01:03:35;17.20;;;4.07;;
7817;SDS011;3954;52.624;9.212;2023-02-01T01:06:03;23.23;;;4.10;;
7817;SDS011;3954;52.624;9.212;2023-02-01T01:08:29;13.23;;;4.10;;
7817;SDS011;3954;52.624;9.212;2023-02-01T01:10:57;17.93;;;4.40;;
7817;SDS011;3954;52.624;9.212;2023-02-01T01:13:23;15.87;;;4.50;;
7817;SDS011;3954;52.624;9.212;2023-02-01T01:15:49;19.90;;;4.43;;
7817;SDS011;3954;52.624;9.212;2023-02-01T01:18:15;17.23;;;3.90;;
7817;SDS011;3954;52.624;9.212;2023-02-01T01:20:41;15.50;;;4.23;;
7817;SDS011;3954;52.624;9.212;2023-02-01T01:23:07;14.37;;;3.63;;
7817;SDS011;3954;52.624;9.212;2023-02-01T01:25:36;15.97;;;3.87;;
7817;SDS011;3954;52.624;9.212;2023-02-01T01:28:04;16.37;;;3.53;;
7817;SDS011;3954;52.624;9.212;2023-02-01T01:30:30;15.47;;;3.70;;
7817;SDS011;3954;52.624;9.212;2023-02-01T01:32:56;16.27;;;4.23;;
7817;SDS011;3954;52.624;9.212;2023-02-01T01:35:22;15.33;;;4.30;;
7817;SDS011;3954;52.624;9.212;2023-02-01T01:37:48;15.20;;;3.80;;
7817;SDS011;3954;52.624;9.212;2023-02-01T01:40:14;18.37;;;4.07;;
7817;SDS011;3954;52.624;9.212;2023-02-01T01:42:40;14.73;;;4.40;;
7817;SDS011;3954;52.624;9.212;2023-02-01T01:45:11;13.13;;;3.80;;
7817;SDS011;3954;52.624;9.212;2023-02-01T01:47:44;20.03;;;4.03;;
7817;SDS011;3954;52.624;9.212;2023-02-01T01:50:13;17.47;;;3.83;;
7817;SDS011;3954;52.624;9.212;2023-02-01T01:52:41;18.23;;;4.43;;
7817;SDS011;3954;52.624;9.212;2023-02-01T01:55:09;15.47;;;3.70;;
7817;SDS011;3954;52.624;9.212;2023-02-01T01:57:37;19.23;;;4.20;;
7817;SDS011;3954;52.624;9.212;2023-02-01T02:00:06;15.23;;;4.00;;
7817;SDS011;3954;52.624;9.212;2023-02-01T02:02:34;16.77;;;3.93;;
7817;SDS011;3954;52.624;9.212;2023-02-01T02:05:00;15.23;;;3.90;;
7817;SDS011;3954;52.624;9.212;2023-02-01T02:07:27;14.17;;;4.07;;
7817;SDS011;3954;52.624;9.212;2023-02-01T02:09:54;14.93;;;4.70;;
7817;SDS011;3954;52.624;9.212;2023-02-01T02:12:20;16.07;;;3.77;;
7817;SDS011;3954;52.624;9.212;2023-02-01T02:14:46;16.40;;;4.33;;
7817;SDS011;3954;52.624;9.212;2023-02-01T02:17:28;13.23;;;3.30;;
7817;SDS011;3954;52.624;9.212;2023-02-01T02:22:52;16.80;;;4.03;;
7817;SDS011;3954;52.624;9.212;2023-02-01T02:25:29;13.43;;;3.83;;
7817;SDS011;3954;52.624;9.212;2023-02-01T02:27:59;13.03;;;3.87;;
7817;SDS011;3954;52.624;9.212;2023-02-01T02:30:34;21.90;;;4.37;;
7817;SDS011;3954;52.624;9.212;2023-02-01T02:33:24;14.47;;;3.60;;
7817;SDS011;3954;52.624;9.212;2023-02-01T02:35:53;9.90;;;4.33;;
7817;SDS011;3954;52.624;9.212;2023-02-01T02:38:22;20.37;;;4.13;;
7817;SDS011;3954;52.624;9.212;2023-02-01T02:40:52;14.10;;;4.10;;
7817;SDS011;3954;52.624;9.212;2023-02-01T02:43:24;12.60;;;3.63;;
7817;SDS011;3954;52.624;9.212;2023-02-01T02:46:15;13.77;;;3.63;;
7817;SDS011;3954;52.624;9.212;2023-02-01T02:49:07;23.73;;;4.37;;
7817;SDS011;3954;52.624;9.212;2023-02-01T02:51:36;13.83;;;3.80;;
7817;SDS011;3954;52.624;9.212;2023-02-01T02:54:22;12.63;;;4.13;;
7817;SDS011;3954;52.624;9.212;2023-02-01T02:57:09;16.17;;;4.03;;
7817;SDS011;3954;52.624;9.212;2023-02-01T02:59:54;18.10;;;4.83;;
7817;SDS011;3954;52.624;9.212;2023-02-01T03:02:40;14.97;;;4.53;;
7817;SDS011;3954;52.624;9.212;2023-02-01T03:05:26;15.73;;;3.50;;
7817;SDS011;3954;52.624;9.212;2023-02-01T03:08:01;17.93;;;4.33;;
7817;SDS011;3954;52.624;9.212;2023-02-01T03:10:30;15.43;;;4.03;;
7817;SDS011;3954;52.624;9.212;2023-02-01T03:12:59;14.53;;;3.50;;
7817;SDS011;3954;52.624;9.212;2023-02-01T03:15:26;14.37;;;4.17;;
7817;SDS011;3954;52.624;9.212;2023-02-01T03:17:55;19.47;;;4.20;;
7817;SDS011;3954;52.624;9.212;2023-02-01T03:20:21;14.60;;;4.07;;
7817;SDS011;3954;52.624;9.212;2023-02-01T03:22:49;13.77;;;4.00;;
7817;SDS011;3954;52.624;9.212;2023-02-01T03:25:18;12.93;;;4.30;;
7817;SDS011;3954;52.624;9.212;2023-02-01T03:27:47;15.33;;;4.80;;
7817;SDS011;3954;52.624;9.212;2023-02-01T03:30:15;16.03;;;4.50;;
7817;SDS011;3954;52.624;9.212;2023-02-01T03:32:44;15.37;;;3.73;;
7817;SDS011;3954;52.624;9.212;2023-02-01T03:35:25;18.93;;;4.13;;
7817;SDS011;3954;52.624;9.212;2023-02-01T03:37:53;12.33;;;3.50;;
7817;SDS011;3954;52.624;9.212;2023-02-01T03:40:22;13.77;;;3.87;;
7817;SDS011;3954;52.624;9.212;2023-02-01T03:42:49;16.80;;;3.73;;
7817;SDS011;3954;52.624;9.212;2023-02-01T03:45:18;13.80;;;3.83;;
7817;SDS011;3954;52.624;9.212;2023-02-01T03:47:46;18.43;;;4.27;;
7817;SDS011;3954;52.624;9.212;2023-02-01T03:50:13;17.87;;;4.03;;
7817;SDS011;3954;52.624;9.212;2023-02-01T03:52:42;15.73;;;4.20;;
7817;SDS011;3954;52.624;9.212;2023-02-01T03:55:10;11.07;;;3.90;;
7817;SDS011;3954;52.624;9.212;2023-02-01T03:57:38;16.43;;;3.80;;
7817;SDS011;3954;52.624;9.212;2023-02-01T04:00:06;15.83;;;3.53;;
7817;SDS011;3954;52.624;9.212;2023-02-01T04:02:33;17.03;;;3.30;;
7817;SDS011;3954;52.624;9.212;2023-02-01T04:04:59;17.97;;;4.23;;
7817;SDS011;3954;52.624;9.212;2023-02-01T04:07:25;19.27;;;3.80;;
7817;SDS011;3954;52.624;9.212;2023-02-01T04:09:51;15.07;;;3.90;;
7817;SDS011;3954;52.624;9.212;2023-02-01T04:12:18;12.60;;;4.10;;
7817;SDS011;3954;52.624;9.212;2023-02-01T04:14:44;13.57;;;4.23;;
7817;SDS011;3954;52.624;9.212;2023-02-01T04:17:10;10.43;;;3.60;;
7817;SDS011;3954;52.624;9.212;2023-02-01T04:19:36;15.47;;;3.97;;
7817;SDS011;3954;52.624;9.212;2023-02-01T04:22:02;18.87;;;4.13;;
7817;SDS011;3954;52.624;9.212;2023-02-01T04:24:28;17.33;;;4.17;;
7817;SDS011;3954;52.624;9.212;2023-02-01T04:26:54;13.90;;;4.73;;
7817;SDS011;3954;52.624;9.212;2023-02-01T04:29:21;14.83;;;4.03;;
7817;SDS011;3954;52.624;9.212;2023-02-01T04:31:47;16.33;;;4.73;;
7817;SDS011;3954;52.624;9.212;2023-02-01T04:34:14;11.30;;;3.90;;
7817;SDS011;3954;52.624;9.212;2023-02-01T04:36:40;17.27;;;4.33;;
7817;SDS011;3954;52.624;9.212;2023-02-01T04:39:08;16.13;;;4.33;;
7817;SDS011;3954;52.624;9.212;2023-02-01T04:41:34;12.97;;;3.93;;
7817;SDS011;3954;52.624;9.212;2023-02-01T04:44:00;18.17;;;3.93;;
7817;SDS011;3954;52.624;9.212;2023-02-01T04:46:27;14.23;;;4.20;;
7817;SDS011;3954;52.624;9.212;2023-02-01T04:48:53;12.87;;;4.37;;
7817;SDS011;3954;52.624;9.212;2023-02-01T04:51:19;11.70;;;3.63;;
7817;SDS011;3954;52.624;9.212;2023-02-01T04:53:45;13.90;;;3.70;;
7817;SDS011;3954;52.624;9.212;2023-02-01T04:56:11;14.03;;;3.47;;
7817;SDS011;3954;52.624;9.212;2023-02-01T04:58:37;11.17;;;3.20;;
7817;SDS011;3954;52.624;9.212;2023-02-01T05:01:03;12.63;;;4.03;;
7817;SDS011;3954;52.624;9.212;2023-02-01T05:03:30;17.73;;;4.50;;
7817;SDS011;3954;52.624;9.212;2023-02-01T05:05:56;9.13;;;3.50;;
7817;SDS011;3954;52.624;9.212;2023-02-01T05:08:22;16.93;;;3.73;;
7817;SDS011;3954;52.624;9.212;2023-02-01T05:10:50;14.43;;;4.43;;
7817;SDS011;3954;52.624;9.212;2023-02-01T05:13:16;13.33;;;3.90;;
7817;SDS011;3954;52.624;9.212;2023-02-01T05:16:01;13.83;;;3.50;;
7817;SDS011;3954;52.624;9.212;2023-02-01T05:18:27;12.27;;;4.20;;
7817;SDS011;3954;52.624;9.212;2023-02-01T05:20:54;12.57;;;3.87;;
7817;SDS011;3954;52.624;9.212;2023-02-01T05:23:20;15.07;;;4.03;;
7817;SDS011;3954;52.624;9.212;2023-02-01T05:25:46;12.33;;;4.40;;
7817;SDS011;3954;52.624;9.212;2023-02-01T05:28:12;11.37;;;3.90;;
7817;SDS011;3954;52.624;9.212;2023-02-01T05:30:38;13.93;;;4.50;;
7817;SDS011;3954;52.624;9.212;2023-02-01T05:33:04;11.97;;;3.97;;
7817;SDS011;3954;52.624;9.212;2023-02-01T05:35:30;13.63;;;4.13;;
7817;SDS011;3954;52.624;9.212;2023-02-01T05:37:57;15.53;;;4.30;;
7817;SDS011;3954;52.624;9.212;2023-02-01T05:40:23;18.20;;;4.20;;
7817;SDS011;3954;52.624;9.212;2023-02-01T05:42:49;15.70;;;4.50;;
7817;SDS011;3954;52.624;9.212;2023-02-01T05:45:15;13.43;;;3.97;;
7817;SDS011;3954;52.624;9.212;2023-02-01T05:47:41;13.27;;;4.00;;
7817;SDS011;3954;52.624;9.212;2023-02-01T05:50:07;14.17;;;4.20;;
7817;SDS011;3954;52.624;9.212;2023-02-01T05:52:34;17.37;;;4.83;;
7817;SDS011;3954;52.624;9.212;2023-02-01T05:55:01;17.57;;;4.53;;
7817;SDS011;3954;52.624;9.212;2023-02-01T05:57:27;13.40;;;4.23;;
7817;SDS011;3954;52.624;9.212;2023-02-01T05:59:53;15.10;;;4.47;;
7817;SDS011;3954;52.624;9.212;2023-02-01T06:02:19;12.50;;;4.00;;
7817;SDS011;3954;52.624;9.212;2023-02-01T06:04:46;14.63;;;5.10;;
7817;SDS011;3954;52.624;9.212;2023-02-01T06:07:12;12.13;;;3.90;;
7817;SDS011;3954;52.624;9.212;2023-02-01T06:09:38;14.17;;;4.43;;
7817;SDS011;3954;52.624;9.212;2023-02-01T06:12:06;11.23;;;4.13;;
7817;SDS011;3954;52.624;9.212;2023-02-01T06:14:32;13.90;;;4.13;;
7817;SDS011;3954;52.624;9.212;2023-02-01T06:16:58;11.43;;;4.13;;
7817;SDS011;3954;52.624;9.212;2023-02-01T06:19:24;14.37;;;4.10;;
7817;SDS011;3954;52.624;9.212;2023-02-01T06:21:50;12.43;;;4.07;;
7817;SDS011;3954;52.624;9.212;2023-02-01T06:24:16;12.53;;;4.10;;
7817;SDS011;3954;52.624;9.212;2023-02-01T06:26:42;11.57;;;4.87;;
7817;SDS011;3954;52.624;9.212;2023-02-01T06:29:10;10.70;;;3.90;;
7817;SDS011;3954;52.624;9.212;2023-02-01T06:31:36;11.10;;;3.90;;
7817;SDS011;3954;52.624;9.212;2023-02-01T06:34:02;12.60;;;4.00;;
7817;SDS011;3954;52.624;9.212;2023-02-01T06:36:29;12.77;;;3.70;;
7817;SDS011;3954;52.624;9.212;2023-02-01T06:38:55;9.37;;;3.90;;
7817;SDS011;3954;52.624;9.212;2023-02-01T06:41:21;13.57;;;4.57;;
7817;SDS011;3954;52.624;9.212;2023-02-01T06:43:47;10.50;;;4.13;;
7817;SDS011;3954;52.624;9.212;2023-02-01T06:46:15;14.17;;;4.47;;
7817;SDS011;3954;52.624;9.212;2023-02-01T06:48:40;11.53;;;3.93;;
7817;SDS011;3954;52.624;9.212;2023-02-01T06:51:14;14.00;;;4.33;;
7817;SDS011;3954;52.624;9.212;2023-02-01T06:53:41;15.53;;;4.20;;
7817;SDS011;3954;52.624;9.212;2023-02-01T06:56:08;18.03;;;4.27;;
7817;SDS011;3954;52.624;9.212;2023-02-01T06:58:34;12.73;;;4.97;;
7817;SDS011;3954;52.624;9.212;2023-02-01T07:01:04;13.30;;;3.90;;
7817;SDS011;3954;52.624;9.212;2023-02-01T07:03:31;16.43;;;4.00;;
7817;SDS011;3954;52.624;9.212;2023-02-01T07:05:57;14.37;;;4.20;;
7817;SDS011;3954;52.624;9.212;2023-02-01T07:08:24;12.47;;;3.93;;
7817;SDS011;3954;52.624;9.212;2023-02-01T07:10:50;14.47;;;4.20;;
7817;SDS011;3954;52.624;9.212;2023-02-01T07:13:16;13.10;;;4.10;;
7817;SDS011;3954;52.624;9.212;2023-02-01T07:15:42;15.50;;;4.70;;
7817;SDS011;3954;52.624;9.212;2023-02-01T07:18:08;15.20;;;3.83;;
7817;SDS011;3954;52.624;9.212;2023-02-01T07:20:35;15.43;;;4.00;;
7817;SDS011;3954;52.624;9.212;2023-02-01T07:23:01;13.97;;;3.37;;
7817;SDS011;3954;52.624;9.212;2023-02-01T07:25:27;17.03;;;3.80;;
7817;SDS011;3954;52.624;9.212;2023-02-01T07:27:53;16.60;;;4.33;;
7817;SDS011;3954;52.624;9.212;2023-02-01T07:30:19;16.03;;;4.60;;
7817;SDS011;3954;52.624;9.212;2023-02-01T07:32:45;15.97;;;3.60;;
7817;SDS011;3954;52.624;9.212;2023-02-01T07:35:11;16.47;;;3.90;;
7817;SDS011;3954;52.624;9.212;2023-02-01T07:37:38;13.63;;;3.93;;
7817;SDS011;3954;52.624;9.212;2023-02-01T07:40:04;16.27;;;4.23;;
7817;SDS011;3954;52.624;9.212;2023-02-01T07:42:31;9.00;;;3.47;;
7817;SDS011;3954;52.624;9.212;2023-02-01T07:44:57;13.80;;;3.77;;
7817;SDS011;3954;52.624;9.212;2023-02-01T07:47:23;10.43;;;3.30;;
7817;SDS011;3954;52.624;9.212;2023-02-01T07:49:49;10.30;;;3.13;;
7817;SDS011;3954;52.624;9.212;2023-02-01T07:52:15;16.30;;;3.83;;
7817;SDS011;3954;52.624;9.212;2023-02-01T07:54:42;12.23;;;3.43;;
7817;SDS011;3954;52.624;9.212;2023-02-01T07:57:08;13.90;;;3.60;;
7817;SDS011;3954;52.624;9.212;2023-02-01T07:59:36;13.77;;;3.67;;
7817;SDS011;3954;52.624;9.212;2023-02-01T08:02:25;12.37;;;3.70;;
7817;SDS011;3954;52.624;9.212;2023-02-01T08:04:51;12.60;;;3.93;;
7817;SDS011;3954;52.624;9.212;2023-02-01T08:07:18;20.77;;;4.20;;
7817;SDS011;3954;52.624;9.212;2023-02-01T08:09:45;13.97;;;3.70;;
7817;SDS011;3954;52.624;9.212;2023-02-01T08:12:11;13.37;;;3.33;;
7817;SDS011;3954;52.624;9.212;2023-02-01T08:14:37;13.97;;;4.43;;
7817;SDS011;3954;52.624;9.212;2023-02-01T08:17:05;12.30;;;4.13;;
7817;SDS011;3954;52.624;9.212;2023-02-01T08:19:31;15.33;;;4.20;;
7817;SDS011;3954;52.624;9.212;2023-02-01T08:21:57;10.40;;;3.40;;
7817;SDS011;3954;52.624;9.212;2023-02-01T08:24:24;13.17;;;3.63;;
7817;SDS011;3954;52.624;9.212;2023-02-01T08:26:51;11.90;;;3.97;;
7817;SDS011;3954;52.624;9.212;2023-02-01T08:29:17;12.63;;;4.10;;
7817;SDS011;3954;52.624;9.212;2023-02-01T08:31:43;12.93;;;3.17;;
7817;SDS011;3954;52.624;9.212;2023-02-01T08:34:09;8.83;;;3.43;;
7817;SDS011;3954;52.624;9.212;2023-02-01T08:36:37;11.13;;;3.40;;
7817;SDS011;3954;52.624;9.212;2023-02-01T08:39:03;10.10;;;3.23;;
7817;SDS011;3954;52.624;9.212;2023-02-01T08:41:33;12.40;;;4.00;;
7817;SDS011;3954;52.624;9.212;2023-02-01T08:44:01;16.27;;;3.80;;
7817;SDS011;3954;52.624;9.212;2023-02-01T08:46:27;12.03;;;3.33;;
7817;SDS011;3954;52.624;9.212;2023-02-01T08:48:53;11.93;;;3.63;;
7817;SDS011;3954;52.624;9.212;2023-02-01T08:51:20;12.47;;;3.27;;
7817;SDS011;3954;52.624;9.212;2023-02-01T08:53:47;13.40;;;3.73;;
7817;SDS011;3954;52.624;9.212;2023-02-01T08:56:13;11.33;;;3.50;;
7817;SDS011;3954;52.624;9.212;2023-02-01T08:58:40;10.00;;;3.03;;
7817;SDS011;3954;52.624;9.212;2023-02-01T09:01:08;12.60;;;3.30;;
7817;SDS011;3954;52.624;9.212;2023-02-01T09:03:34;10.97;;;3.03;;
7817;SDS011;3954;52.624;9.212;2023-02-01T09:06:00;11.80;;;3.70;;
7817;SDS011;3954;52.624;9.212;2023-02-01T09:08:26;13.10;;;3.70;;
7817;SDS011;3954;52.624;9.212;2023-02-01T09:10:52;7.20;;;2.70;;
7817;SDS011;3954;52.624;9.212;2023-02-01T09:13:18;11.77;;;3.27;;
7817;SDS011;3954;52.624;9.212;2023-02-01T09:15:44;9.70;;;2.93;;
7817;SDS011;3954;52.624;9.212;2023-02-01T09:18:12;8.80;;;3.23;;
7817;SDS011;3954;52.624;9.212;2023-02-01T09:20:38;16.27;;;3.50;;
7817;SDS011;3954;52.624;9.212;2023-02-01T09:23:04;9.97;;;3.10;;
7817;SDS011;3954;52.624;9.212;2023-02-01T09:25:32;10.00;;;3.00;;
7817;SDS011;3954;52.624;9.212;2023-02-01T09:27:58;11.13;;;2.87;;
7817;SDS011;3954;52.624;9.212;2023-02-01T09:30:24;10.73;;;2.87;;
7817;SDS011;3954;52.624;9.212;2023-02-01T09:32:50;10.97;;;3.30;;
7817;SDS011;3954;52.624;9.212;2023-02-01T09:35:17;10.37;;;3.53;;
7817;SDS011;3954;52.624;9.212;2023-02-01T09:37:43;8.67;;;2.93;;
7817;SDS011;3954;52.624;9.212;2023-02-01T09:40:10;11.80;;;3.20;;
7817;SDS011;3954;52.624;9.212;2023-02-01T09:42:43;11.13;;;3.03;;
7817;SDS011;3954;52.624;9.212;2023-02-01T09:45:15;11.40;;;3.60;;
7817;SDS011;3954;52.624;9.212;2023-02-01T09:47:45;11.10;;;2.70;;
7817;SDS011;3954;52.624;9.212;2023-02-01T09:50:13;14.53;;;4.10;;
7817;SDS011;3954;52.624;9.212;2023-02-01T09:52:44;8.53;;;3.07;;
7817;SDS011;3954;52.624;9.212;2023-02-01T09:55:13;14.07;;;3.63;;
7817;SDS011;3954;52.624;9.212;2023-02-01T09:57:42;12.10;;;2.87;;
7817;SDS011;3954;52.624;9.212;2023-02-01T10:00:13;7.90;;;3.23;;
7817;SDS011;3954;52.624;9.212;2023-02-01T10:02:41;9.90;;;3.47;;
7817;SDS011;3954;52.624;9.212;2023-02-01T10:05:10;10.27;;;3.20;;
7817;SDS011;3954;52.624;9.212;2023-02-01T10:07:37;9.30;;;2.90;;
7817;SDS011;3954;52.624;9.212;2023-02-01T10:10:09;11.93;;;3.47;;
7817;SDS011;3954;52.624;9.212;2023-02-01T10:15:24;11.70;;;3.67;;
7817;SDS011;3954;52.624;9.212;2023-02-01T10:18:00;7.57;;;3.17;;
7817;SDS011;3954;52.624;9.212;2023-02-01T10:20:34;9.17;;;3.00;;
7817;SDS011;3954;52.624;9.212;2023-02-01T10:23:06;10.27;;;3.10;;
7817;SDS011;3954;52.624;9.212;2023-02-01T10:25:38;14.33;;;3.23;;
7817;SDS011;3954;52.624;9.212;2023-02-01T10:28:06;11.40;;;3.03;;
7817;SDS011;3954;52.624;9.212;2023-02-01T10:30:37;13.60;;;3.60;;
7817;SDS011;3954;52.624;9.212;2023-02-01T10:33:07;12.90;;;3.20;;
7817;SDS011;3954;52.624;9.212;2023-02-01T10:35:40;12.80;;;3.23;;
7817;SDS011;3954;52.624;9.212;2023-02-01T10:38:07;7.67;;;2.87;;
7817;SDS011;3954;52.624;9.212;2023-02-01T10:40:39;8.37;;;2.97;;
7817;SDS011;3954;52.624;9.212;2023-02-01T10:43:05;9.47;;;3.20;;
7817;SDS011;3954;52.624;9.212;2023-02-01T10:45:32;13.33;;;3.27;;
7817;SDS011;3954;52.624;9.212;2023-02-01T10:47:59;10.83;;;3.30;;
7817;SDS011;3954;52.624;9.212;2023-02-01T10:50:29;8.73;;;3.30;;
7817;SDS011;3954;52.624;9.212;2023-02-01T10:52:58;9.10;;;3.37;;
7817;SDS011;3954;52.624;9.212;2023-02-01T10:55:32;10.83;;;3.13;;
7817;SDS011;3954;52.624;9.212;2023-02-01T10:58:00;11.80;;;3.00;;
7817;SDS011;3954;52.624;9.212;2023-02-01T11:00:27;9.07;;;2.50;;
7817;SDS011;3954;52.624;9.212;2023-02-01T11:02:53;8.87;;;2.70;;
7817;SDS011;3954;52.624;9.212;2023-02-01T11:05:19;8.40;;;2.93;;
7817;SDS011;3954;52.624;9.212;2023-02-01T11:07:48;11.10;;;2.97;;
7817;SDS011;3954;52.624;9.212;2023-02-01T11:12:56;15.13;;;3.87;;
7817;SDS011;3954;52.624;9.212;2023-02-01T11:15:24;13.43;;;3.17;;
7817;SDS011;3954;52.624;9.212;2023-02-01T11:17:52;12.63;;;3.43;;
7817;SDS011;3954;52.624;9.212;2023-02-01T11:20:26;11.87;;;3.37;;
7817;SDS011;3954;52.624;9.212;2023-02-01T11:23:00;7.97;;;3.20;;
7817;SDS011;3954;52.624;9.212;2023-02-01T11:25:27;7.50;;;2.93;;
7817;SDS011;3954;52.624;9.212;2023-02-01T11:27:54;14.97;;;3.90;;
7817;SDS011;3954;52.624;9.212;2023-02-01T11:30:25;7.73;;;3.30;;
7817;SDS011;3954;52.624;9.212;2023-02-01T11:32:53;5.73;;;2.60;;
7817;SDS011;3954;52.624;9.212;2023-02-01T11:35:20;10.60;;;3.43;;
7817;SDS011;3954;52.624;9.212;2023-02-01T11:37:48;14.03;;;3.40;;
7817;SDS011;3954;52.624;9.212;2023-02-01T11:40:23;8.80;;;3.43;;
7817;SDS011;3954;52.624;9.212;2023-02-01T11:42:55;10.70;;;3.57;;
7817;SDS011;3954;52.624;9.212;2023-02-01T11:45:25;8.37;;;3.07;;
7817;SDS011;3954;52.624;9.212;2023-02-01T11:47:52;12.43;;;3.93;;
7817;SDS011;3954;52.624;9.212;2023-02-01T11:50:26;15.43;;;3.47;;
7817;SDS011;3954;52.624;9.212;2023-02-01T11:53:01;11.67;;;3.30;;
7817;SDS011;3954;52.624;9.212;2023-02-01T11:55:38;10.23;;;3.77;;
7817;SDS011;3954;52.624;9.212;2023-02-01T11:58:12;17.07;;;3.50;;
7817;SDS011;3954;52.624;9.212;2023-02-01T12:00:49;16.10;;;3.37;;
7817;SDS011;3954;52.624;9.212;2023-02-01T12:03:28;10.80;;;3.83;;
7817;SDS011;3954;52.624;9.212;2023-02-01T12:05:57;20.13;;;10.00;;
7817;SDS011;3954;52.624;9.212;2023-02-01T12:08:49;8.00;;;3.73;;
7817;SDS011;3954;52.624;9.212;2023-02-01T12:11:21;8.03;;;2.80;;
7817;SDS011;3954;52.624;9.212;2023-02-01T12:13:52;16.37;;;7.67;;
7817;SDS011;3954;52.624;9.212;2023-02-01T12:16:28;8.23;;;3.13;;
7817;SDS011;3954;52.624;9.212;2023-02-01T12:19:03;15.13;;;8.10;;
7817;SDS011;3954;52.624;9.212;2023-02-01T12:21:44;9.77;;;4.43;;
7817;SDS011;3954;52.624;9.212;2023-02-01T12:24:24;9.57;;;2.80;;
7817;SDS011;3954;52.624;9.212;2023-02-01T12:26:55;8.27;;;3.57;;
7817;SDS011;3954;52.624;9.212;2023-02-01T12:29:30;12.40;;;3.13;;
7817;SDS011;3954;52.624;9.212;2023-02-01T12:32:05;8.30;;;3.00;;
7817;SDS011;3954;52.624;9.212;2023-02-01T12:34:37;9.03;;;2.80;;
7817;SDS011;3954;52.624;9.212;2023-02-01T12:37:07;7.53;;;2.93;;
7817;SDS011;3954;52.624;9.212;2023-02-01T12:39:39;12.57;;;3.27;;
7817;SDS011;3954;52.624;9.212;2023-02-01T12:42:08;7.17;;;3.03;;
7817;SDS011;3954;52.624;9.212;2023-02-01T12:44:41;10.40;;;3.30;;
7817;SDS011;3954;52.624;9.212;2023-02-01T12:47:14;8.40;;;2.93;;
7817;SDS011;3954;52.624;9.212;2023-02-01T12:49:46;7.53;;;2.80;;
7817;SDS011;3954;52.624;9.212;2023-02-01T12:52:14;4.80;;;2.60;;
7817;SDS011;3954;52.624;9.212;2023-02-01T12:54:43;7.73;;;2.80;;
7817;SDS011;3954;52.624;9.212;2023-02-01T12:57:12;8.80;;;3.03;;
7817;SDS011;3954;52.624;9.212;2023-02-01T12:59:39;5.67;;;2.27;;
7817;SDS011;3954;52.624;9.212;2023-02-01T13:02:08;4.73;;;1.90;;
7817;SDS011;3954;52.624;9.212;2023-02-01T13:04:41;5.00;;;1.73;;
7817;SDS011;3954;52.624;9.212;2023-02-01T13:07:09;2.10;;;1.43;;
7817;SDS011;3954;52.624;9.212;2023-02-01T13:09:38;2.73;;;1.57;;
7817;SDS011;3954;52.624;9.212;2023-02-01T13:12:06;2.60;;;1.40;;
7817;SDS011;3954;52.624;9.212;2023-02-01T13:14:37;1.10;;;1.00;;
7817;SDS011;3954;52.624;9.212;2023-02-01T13:17:05;1.63;;;1.17;;
7817;SDS011;3954;52.624;9.212;2023-02-01T13:19:35;1.47;;;1.13;;
7817;SDS011;3954;52.624;9.212;2023-02-01T13:22:05;2.37;;;1.17;;
7817;SDS011;3954;52.624;9.212;2023-02-01T13:24:33;3.10;;;1.20;;
7817;SDS011;3954;52.624;9.212;2023-02-01T13:27:02;6.70;;;4.97;;
7817;SDS011;3954;52.624;9.212;2023-02-01T13:29:28;4.60;;;4.20;;
7817;SDS011;3954;52.624;9.212;2023-02-01T13:31:57;2.83;;;2.53;;
7817;SDS011;3954;52.624;9.212;2023-02-01T13:34:38;2.20;;;1.20;;
7817;SDS011;3954;52.624;9.212;2023-02-01T13:37:14;1.37;;;1.07;;
7817;SDS011;3954;52.624;9.212;2023-02-01T13:39:44;1.97;;;1.17;;
7817;SDS011;3954;52.624;9.212;2023-02-01T13:42:13;1.10;;;1.07;;
7817;SDS011;3954;52.624;9.212;2023-02-01T13:44:42;1.50;;;1.30;;
7817;SDS011;3954;52.624;9.212;2023-02-01T13:47:11;1.73;;;1.13;;
7817;SDS011;3954;52.624;9.212;2023-02-01T13:49:38;1.20;;;1.10;;
7817;SDS011;3954;52.624;9.212;2023-02-01T13:52:06;1.33;;;1.20;;
7817;SDS011;3954;52.624;9.212;2023-02-01T13:54:34;1.63;;;1.40;;
7817;SDS011;3954;52.624;9.212;2023-02-01T13:57:02;1.77;;;1.20;;
7817;SDS011;3954;52.624;9.212;2023-02-01T13:59:36;2.17;;;1.60;;
7817;SDS011;3954;52.624;9.212;2023-02-01T14:04:47;1.43;;;1.13;;
7817;SDS011;3954;52.624;9.212;2023-02-01T14:07:19;2.20;;;1.43;;
7817;SDS011;3954;52.624;9.212;2023-02-01T14:09:47;2.37;;;1.40;;
7817;SDS011;3954;52.624;9.212;2023-02-01T14:15:14;1.67;;;1.40;;
7817;SDS011;3954;52.624;9.212;2023-02-01T14:17:42;2.20;;;1.20;;
7817;SDS011;3954;52.624;9.212;2023-02-01T14:22:59;2.17;;;1.10;;
7817;SDS011;3954;52.624;9.212;2023-02-01T14:25:31;2.43;;;1.30;;
7817;SDS011;3954;52.624;9.212;2023-02-01T14:27:57;1.17;;;1.07;;
7817;SDS011;3954;52.624;9.212;2023-02-01T14:30:23;2.33;;;1.33;;
7817;SDS011;3954;52.624;9.212;2023-02-01T14:32:49;3.83;;;1.50;;
7817;SDS011;3954;52.624;9.212;2023-02-01T14:35:17;2.33;;;1.53;;
7817;SDS011;3954;52.624;9.212;2023-02-01T14:37:44;4.47;;;1.70;;
7817;SDS011;3954;52.624;9.212;2023-02-01T14:40:15;3.20;;;1.30;;
7817;SDS011;3954;52.624;9.212;2023-02-01T14:42:44;3.87;;;1.30;;
7817;SDS011;3954;52.624;9.212;2023-02-01T14:48:17;4.50;;;1.53;;
7817;SDS011;3954;52.624;9.212;2023-02-01T14:50:42;3.70;;;1.50;;
7817;SDS011;3954;52.624;9.212;2023-02-01T14:53:19;4.57;;;3.30;;
7817;SDS011;3954;52.624;9.212;2023-02-01T14:55:47;3.67;;;2.20;;
7817;SDS011;3954;52.624;9.212;2023-02-01T14:58:18;4.13;;;2.40;;
7817;SDS011;3954;52.624;9.212;2023-02-01T15:00:50;2.97;;;1.53;;
7817;SDS011;3954;52.624;9.212;2023-02-01T15:03:23;3.13;;;1.53;;
7817;SDS011;3954;52.624;9.212;2023-02-01T15:05:54;2.97;;;1.40;;
7817;SDS011;3954;52.624;9.212;2023-02-01T15:08:22;4.33;;;1.70;;
7817;SDS011;3954;52.624;9.212;2023-02-01T15:10:50;4.23;;;1.63;;
7817;SDS011;3954;52.624;9.212;2023-02-01T15:13:22;2.97;;;1.90;;
7817;SDS011;3954;52.624;9.212;2023-02-01T15:16:05;6.20;;;1.90;;
7817;SDS011;3954;52.624;9.212;2023-02-01T15:18:31;5.23;;;2.30;;
7817;SDS011;3954;52.624;9.212;2023-02-01T15:20:58;5.63;;;2.43;;
7817;SDS011;3954;52.624;9.212;2023-02-01T15:23:24;10.43;;;3.00;;
7817;SDS011;3954;52.624;9.212;2023-02-01T15:25:51;5.30;;;3.00;;
7817;SDS011;3954;52.624;9.212;2023-02-01T15:28:17;6.67;;;2.17;;
7817;SDS011;3954;52.624;9.212;2023-02-01T15:30:52;19.93;;;9.93;;
7817;SDS011;3954;52.624;9.212;2023-02-01T15:33:19;5.80;;;2.33;;